Balko, OK (73931)

5:48 AM CST on February 27, 2015 (GMT -0600)
Zender Laundromat | Change Station
CLOSE
Current Station
Personal Weather Station
Location: Booker, TX
Elevation: 2844 ft
Nearby Weather Stations
Active Advisory: Winter Weather Advisory

Elev 2844 ft 36.45 °N, 100.54 °W | Updated 10 seconds ago

Snow
Snow
13.5 °F
Feels Like 1 °F
N
9.8
Wind Variable Wind from NE
Gusts 14.5 mph

Today
High -- | Low -- °F
--% Chance of Precip.
Yesterday
High -- | Low -- °F
Precip. -- in
7:16 AM 6:35 PM
Waxing Gibbous, 68% visible
Pressure 30.35 in
Visibility 4.0 miles
Clouds Mostly Cloudy 1700 ft
Overcast 2600 ft
Windchill 1 °F
Dew Point 6 °F
Humidity 73%
Rainfall 0.00 in
Snow Depth Not available.
UV 0 out of 12
Pollen .40 out of 12
Air Quality Not available.
Flu Activity Not available.
METAR KPYX 271135Z AUTO 08009KT 4SM BKN017 OVC026 M10/M15 A3035 RMK AO2 T10961150

More Conditions Fewer Conditions

Pressure 30.35 in
Visibility 4.0 miles
Clouds Mostly Cloudy 1700 ft
Overcast 2600 ft
Windchill 1 °F
Dew Point 6 °F
Humidity 73%
Rainfall 0.00 in
Snow Depth Not available.
UV 0 out of 12
Pollen .40 out of 12
Air Quality Not available.
Flu Activity Not available.
METAR KPYX 271135Z AUTO 08009KT 4SM BKN017 OVC026 M10/M15 A3035 RMK AO2 T10961150

More Conditions Fewer Conditions

10-Day Weather Forecast

Almanac

Astronomy

Feb. 27, 2015 Rise Set
Actual Time
Civil Twilight
Nautical Twilight
Astronomical Twilight
Moon
Length of Visible Light
Length of Day
Tomorrow will be .
, % of the Moon is Illuminated

Today's Extremes

State Highs State Lows

Community

WunderPhotos

Upload Photos

1,800,656 photos uploaded!

WunderBlogs® & News

Nearby

Air Quality

  Air Quality AQ Index Pollutant
Not available.

Snow Depth

Station Depth Elevation

Earthquake Activity

City Distance Mag. Time & Date
Minimum magnitude displayed is 2.5.

Coastal Water Temperatures

Place Temperature

Nearby Weather Stations

Winter Weather Advisory
Statement as of 4:59 AM CST on February 27, 2015

... Winter Weather Advisory remains in effect until 6 PM CST this
evening...

A Winter Weather Advisory for snow remains in effect until 6 PM CST
this evening.

* Event... light to moderate snow can be expected across the eastern
Oklahoma Panhandle and the northeastern Texas Panhandle today... producing
accumulations of 2 to 3 inches.

* Timing... snow will continue into the afternoon today.

* Impacts... roads and bridges will likely be snow packed and
icy... resulting in hazardous travel conditions.

Precautionary/preparedness actions...

A Winter Weather Advisory means that periods of snow... sleet... or
freezing rain will cause travel difficulties. Be prepared for
slippery roads and limited visibilities... and use caution while
driving.